Latest Coastal Weather Observations for Point Fawcett

IDD60701

Issued at 1:25 pm CST Saturday 20 September 2014 (issued every 10 minutes, with the page automatically refreshed every 10 minutes)

About coastal observations | Map of coastal stations | Coastal observations for NT | Marine services | Other Formats
Station Details ID: 200731 Name: POINT FAWCETT Lat: -11.76 Lon: 130.03 Height: 6.5 m
Data from the previous 72 hours. | See also: Recent months at Point Fawcett
Date/Time
CST
Temp

°C
Wind Pressure Rain
since 9am
mm
Weather Cloud Vis
km
Sea
Height
m
Swell
Dir
 
Speed
knots
Gust
knots
hPa Trend Height
m
Period
s
Dir
20/01:00pm 31.9 SSE 8 13 1013.0 - - - - - - - - -
20/12:30pm 31.8 SSE 7 13 1013.6 - - - - - - - - -
20/12:00pm 31.5 SSE 8 13 1014.1 - - - - - - - - -
20/11:30am 31.4 ENE 6 10 1014.6 - - - - - - - - -
20/11:00am 30.3 WNW 9 13 1015.0 - - - - - - - - -
20/10:30am 30.0 SSW 5 10 1015.2 - - - - - - - - -
20/10:00am 29.8 N 5 7 1015.4 - - - - - - - - -
20/09:30am 28.9 N 4 5 1015.3 - - - - - - - - -
20/09:00am 26.6 NNW 3 4 1015.1 - - - - - - - - -
20/08:30am 25.4 CALM 0 0 1014.9 - - - - - - - - -
20/08:00am 22.5 ESE 3 3 1014.5 - - - - - - - - -
20/07:30am 19.3 ESE 3 4 1014.2 - - - - - - - - -
20/07:00am 17.5 ESE 3 4 1013.9 - - - - - - - - -
20/06:30am 17.4 ESE 3 4 1013.5 - - - - - - - - -
20/06:00am 17.7 ESE 3 3 1013.2 - - - - - - - - -
20/05:30am 17.8 ESE 3 4 1013.2 - - - - - - - - -
20/05:00am 18.1 ESE 3 4 1013.1 - - - - - - - - -
20/04:30am 18.6 ESE 3 3 1013.0 - - - - - - - - -
20/04:00am 19.1 ESE 3 4 1013.3 - - - - - - - - -
20/03:30am 19.4 ESE 3 4 1013.6 - - - - - - - - -
20/03:00am 19.8 ESE 4 4 1013.5 - - - - - - - - -
20/02:30am 20.1 ESE 4 4 1013.7 - - - - - - - - -
20/02:00am 20.5 ESE 4 5 1014.0 - - - - - - - - -
20/01:30am 20.9 ESE 4 4 1014.5 - - - - - - - - -
20/01:00am 21.0 ESE 4 5 1014.8 - - - - - - - - -
20/12:30am 21.3 ESE 4 5 1015.1 - - - - - - - - -
20/12:00am 21.7 SSE 0 0 1014.8 - - - - - - - - -
 
Date/Time
CST
Temp

°C
Wind Pressure Rain
since 9am
mm
Weather Cloud Vis
km
Sea
Height
m
Swell
Dir
 
Speed
knots
Gust
knots
hPa Trend Height
m
Period
s
Dir
19/11:30pm 22.4 CALM 0 0 1014.9 - - - - - - - - -
19/11:00pm 23.6 W 4 6 1014.9 - - - - - - - - -
19/10:30pm 25.8 W 6 7 1014.8 - - - - - - - - -
19/10:00pm 26.6 WNW 7 8 1014.6 - - - - - - - - -
19/09:30pm 26.7 WNW 7 8 1014.5 - - - - - - - - -
19/09:00pm 26.8 NW 8 11 1013.9 - - - - - - - - -
19/08:30pm 26.9 NW 8 11 1013.7 - - - - - - - - -
19/08:00pm 26.9 NNW 9 11 1013.3 - - - - - - - - -
19/07:30pm 27.3 NW 9 11 1013.0 - - - - - - - - -
19/07:00pm 27.5 NW 9 11 1012.5 - - - - - - - - -
19/06:30pm 28.4 WNW 7 9 1011.8 - - - - - - - - -
19/06:00pm 29.6 W 5 7 1011.2 - - - - - - - - -
19/05:30pm 30.4 SSE 5 7 1010.7 - - - - - - - - -
19/05:00pm 31.7 SW 6 11 1010.3 - - - - - - - - -
19/04:30pm 33.5 SE 4 6 1009.9 - - - - - - - - -
19/04:00pm 33.2 S 5 10 1010.4 - - - - - - - - -
19/03:30pm 34.4 ESE 6 10 1010.7 - - - - - - - - -
19/03:00pm 33.8 SE 7 12 1011.1 - - - - - - - - -
19/02:30pm 32.6 SSE 6 11 1011.9 - - - - - - - - -
19/02:00pm 32.3 S 7 11 1012.3 - - - - - - - - -
19/01:30pm 31.8 S 8 13 1012.9 - - - - - - - - -
19/01:00pm 31.8 S 8 12 1013.3 - - - - - - - - -
19/12:30pm 31.7 S 8 13 1013.7 - - - - - - - - -
19/12:00pm 31.3 S 8 13 1014.1 - - - - - - - - -
19/11:30am 31.4 SSE 7 13 1014.7 - - - - - - - - -
19/11:00am 30.1 S 6 11 1015.1 - - - - - - - - -
19/10:30am 29.4 WSW 6 9 1015.5 - - - - - - - - -
19/10:00am 29.3 WSW 6 9 1015.7 - - - - - - - - -
19/09:30am 28.3 WSW 4 6 1015.8 - - - - - - - - -
19/09:00am 27.1 W 3 6 1015.7 - - - - - - - - -
19/08:30am 25.6 SE 2 4 1015.7 - - - - - - - - -
19/08:00am 22.9 SE 2 3 1015.6 - - - - - - - - -
19/07:30am 19.8 SE 3 4 1015.0 - - - - - - - - -
19/07:00am 18.0 SE 3 5 1014.7 - - - - - - - - -
19/06:30am 17.5 SSE 3 4 1014.1 - - - - - - - - -
19/06:00am 17.5 SSE 3 4 1013.9 - - - - - - - - -
19/05:30am 17.7 SSE 3 4 1013.7 - - - - - - - - -
19/05:00am 17.8 SSE 4 4 1013.6 - - - - - - - - -
19/04:30am 18.0 SSE 3 4 1013.4 - - - - - - - - -
19/04:00am 18.3 SSE 3 4 1013.5 - - - - - - - - -
19/03:30am 18.6 SSE 3 4 1013.5 - - - - - - - - -
19/03:00am 18.7 SE 3 4 1013.7 - - - - - - - - -
19/02:30am 19.0 SSE 3 4 1013.8 - - - - - - - - -
19/02:00am 19.4 SE 4 4 1014.1 - - - - - - - - -
19/01:30am 19.7 SE 4 4 1014.3 - - - - - - - - -
19/01:00am 19.6 SE 4 5 1014.5 - - - - - - - - -
19/12:30am 19.8 E 3 4 1014.7 - - - - - - - - -
19/12:00am 20.4 S 3 4 1014.9 - - - - - - - - -
 
Date/Time
CST
Temp

°C
Wind Pressure Rain
since 9am
mm
Weather Cloud Vis
km
Sea
Height
m
Swell
Dir
 
Speed
knots
Gust
knots
hPa Trend Height
m
Period
s
Dir
18/11:30pm 20.7 S 3 3 1015.2 - - - - - - - - -
18/11:00pm 21.2 CALM 0 0 1015.2 - - - - - - - - -
18/10:30pm 21.9 NW 3 4 1015.0 - - - - - - - - -
18/10:00pm 22.8 NW 3 4 1014.8 - - - - - - - - -
18/09:30pm 24.6 NW 4 5 1014.6 - - - - - - - - -
18/09:00pm 26.6 NNW 5 6 1014.0 - - - - - - - - -
18/08:30pm 26.7 NNW 6 8 1013.9 - - - - - - - - -
18/08:00pm 26.8 NNW 6 8 1013.7 - - - - - - - - -
18/07:30pm 27.1 NNW 8 9 1013.2 - - - - - - - - -
18/07:00pm 27.4 WNW 5 6 1012.8 - - - - - - - - -
18/06:30pm 28.5 SW 5 8 1012.1 - - - - - - - - -
18/06:00pm 29.6 S 4 7 1011.6 - - - - - - - - -
18/05:30pm 30.4 SE 5 8 1011.3 - - - - - - - - -
18/05:00pm 31.0 SSE 6 11 1011.0 - - - - - - - - -
18/04:30pm 32.4 SSE 6 8 1011.1 - - - - - - - - -
18/04:00pm 32.4 SE 6 10 1011.2 - - - - - - - - -
18/03:30pm 32.7 SSE 6 10 1011.8 - - - - - - - - -
18/03:00pm 32.6 SE 7 12 1012.0 - - - - - - - - -
18/02:30pm 32.0 SE 8 13 1012.6 - - - - - - - - -
18/02:00pm 30.9 SSE 9 14 1013.2 - - - - - - - - -
18/01:30pm 31.4 SSE 8 13 1013.8 - - - - - - - - -
18/01:00pm 32.0 SSE 7 10 1014.4 - - - - - - - - -
18/12:30pm 31.2 S 8 13 1014.9 - - - - - - - - -
18/12:00pm 31.0 SSE 7 11 1015.3 - - - - - - - - -
18/11:30am 30.7 W 8 13 1015.9 - - - - - - - - -
18/11:00am 29.8 WSW 6 8 1016.4 - - - - - - - - -
18/10:30am 29.9 NW 5 8 1016.7 - - - - - - - - -
18/10:00am 30.0 ENE 6 8 1016.9 - - - - - - - - -
18/09:30am 28.7 ENE 5 6 1016.5 - - - - - - - - -
18/09:00am 27.3 ENE 4 6 1016.3 - - - - - - - - -
18/08:30am 25.2 E 3 5 1016.1 - - - - - - - - -
18/08:00am 22.4 ESE 3 4 1015.9 - - - - - - - - -
18/07:30am 19.4 SE 3 4 1015.6 - - - - - - - - -
18/07:00am 17.9 SE 4 4 1015.2 - - - - - - - - -
18/06:30am 17.8 SE 4 4 1014.8 - - - - - - - - -
18/06:00am 18.2 SE 4 5 1014.3 - - - - - - - - -
18/05:30am 18.4 ESE 4 4 1014.0 - - - - - - - - -
18/05:00am 18.5 ESE 4 4 1013.8 - - - - - - - - -
18/04:30am 18.8 ESE 4 4 1013.8 - - - - - - - - -
18/04:00am 19.1 ESE 4 4 1013.9 - - - - - - - - -
18/03:30am 19.2 ESE 4 5 1014.0 - - - - - - - - -
18/03:00am 19.5 ESE 4 5 1014.0 - - - - - - - - -
18/02:30am 19.8 ESE 4 5 1014.2 - - - - - - - - -
18/02:00am 20.2 E 5 6 1014.5 - - - - - - - - -
18/01:30am 20.1 E 5 6 1014.6 - - - - - - - - -
18/01:00am 20.5 ESE 4 5 1014.8 - - - - - - - - -
18/12:30am 20.6 ESE 5 5 1015.0 - - - - - - - - -
18/12:00am 20.8 ESE 4 5 1015.2 - - - - - - - - -
 
Date/Time
CST
Temp

°C
Wind Pressure Rain
since 9am
mm
Weather Cloud Vis
km
Sea
Height
m
Swell
Dir
 
Speed
knots
Gust
knots
hPa Trend Height
m
Period
s
Dir
17/11:30pm 21.2 ESE 4 5 1015.2 - - - - - - - - -
17/11:00pm 22.0 ESE 4 4 1015.1 - - - - - - - - -
17/10:30pm 23.2 N 1 4 1015.0 - - - - - - - - -
17/10:00pm 26.1 NNW 5 6 1014.8 - - - - - - - - -
17/09:30pm 26.5 NNW 6 7 1014.4 - - - - - - - - -
17/09:00pm 26.7 NNW 7 8 1014.0 - - - - - - - - -
17/08:30pm 26.6 NNW 7 9 1013.7 - - - - - - - - -
17/08:00pm 26.8 NW 9 11 1013.3 - - - - - - - - -
17/07:30pm 26.9 NW 8 11 1012.8 - - - - - - - - -
17/07:00pm 27.1 NW 8 10 1012.4 - - - - - - - - -
17/06:30pm 27.6 WNW 8 10 1012.1 - - - - - - - - -
17/05:30pm 29.2 NW 10 11 1011.3 - - - - - - - - -
17/05:00pm 29.6 W 9 12 1011.1 - - - - - - - - -
17/04:30pm 30.5 WSW 7 11 1010.9 - - - - - - - - -
17/04:00pm 30.5 SW 9 13 1011.0 - - - - - - - - -
17/03:30pm 31.1 SSW 8 14 1011.2 - - - - - - - - -
17/03:00pm 31.5 SSW 6 11 1011.1 - - - - - - - - -
17/02:30pm 30.9 SSE 8 13 1011.6 - - - - - - - - -
17/02:00pm 31.9 SSE 7 13 1012.0 - - - - - - - - -
17/01:30pm 31.5 SSE 7 12 1012.4 - - - - - - - - -

Other Formats:

Comma delimited format used in spreadsheet applications
http://www.bom.gov.au/fwo/IDD60701/IDD60701.94122.axf

JavaScript Object Notation format (JSON) in row-major order
http://www.bom.gov.au/fwo/IDD60701/IDD60701.94122.json